createdAt,value
2023-02-27T00:00:15.113Z,18.76
2023-02-27T00:05:37.049Z,18.71
2023-02-27T00:10:58.793Z,18.67
2023-02-27T00:16:20.659Z,18.63
2023-02-27T00:21:44.688Z,18.57
2023-02-27T00:27:06.474Z,18.53
2023-02-27T00:32:29.527Z,18.49
2023-02-27T00:37:51.301Z,18.44
2023-02-27T00:43:13.012Z,18.39
2023-02-27T00:48:34.688Z,18.35
2023-02-27T00:53:56.741Z,18.31
2023-02-27T00:59:18.563Z,18.26
2023-02-27T01:04:40.591Z,18.23
2023-02-27T01:10:02.317Z,18.20
2023-02-27T01:15:24.005Z,18.14
2023-02-27T01:20:45.705Z,18.10
2023-02-27T01:26:08.194Z,18.07
2023-02-27T01:31:30.098Z,18.06
2023-02-27T01:36:51.912Z,18.03
2023-02-27T01:42:28.424Z,18.04
2023-02-27T01:47:56.365Z,18.00
2023-02-27T01:53:20.363Z,17.97
2023-02-27T01:58:43.528Z,17.93
2023-02-27T02:04:11.413Z,17.90
2023-02-27T02:09:36.438Z,17.89
2023-02-27T02:14:58.303Z,17.87
2023-02-27T02:20:43.109Z,17.85
2023-02-27T02:26:25.012Z,17.82
2023-02-27T02:32:08.054Z,17.78
2023-02-27T02:37:41.530Z,17.73
2023-02-27T02:43:12.570Z,17.72
2023-02-27T02:48:53.124Z,17.71
2023-02-27T02:54:43.946Z,17.69
2023-02-27T03:00:30.238Z,17.67
2023-02-27T03:06:11.900Z,17.67
2023-02-27T03:11:39.462Z,17.63
2023-02-27T03:17:08.060Z,17.62
2023-02-27T03:22:34.726Z,17.61
2023-02-27T03:28:06.180Z,17.60
2023-02-27T03:33:36.396Z,17.57
2023-02-27T03:39:11.762Z,17.55
2023-02-27T03:44:41.530Z,17.53
2023-02-27T03:50:03.543Z,17.50
2023-02-27T03:55:39.128Z,17.48
2023-02-27T04:01:00.942Z,17.43
2023-02-27T04:06:42.934Z,17.42
2023-02-27T04:12:27.023Z,17.40
2023-02-27T04:18:29.849Z,17.37
2023-02-27T04:24:17.413Z,17.36
2023-02-27T04:29:51.180Z,17.34
2023-02-27T04:35:20.920Z,17.34
2023-02-27T04:40:52.887Z,17.33
2023-02-27T04:46:17.466Z,17.31
2023-02-27T04:52:10.929Z,17.31
2023-02-27T04:57:38.818Z,17.29
2023-02-27T05:03:11.163Z,17.28
2023-02-27T05:09:09.290Z,17.28
2023-02-27T05:14:31.046Z,17.22
2023-02-27T05:19:53.018Z,17.22
2023-02-27T05:25:48.493Z,17.21
2023-02-27T05:31:18.606Z,17.19
2023-02-27T05:36:57.465Z,17.18
2023-02-27T05:42:28.880Z,17.17
2023-02-27T05:48:01.056Z,17.15
2023-02-27T05:53:28.596Z,17.12
2023-02-27T05:59:17.681Z,17.11
2023-02-27T06:04:40.557Z,17.11
2023-02-27T06:10:02.580Z,17.31
2023-02-27T06:15:24.459Z,17.66
2023-02-27T06:20:47.359Z,18.04
2023-02-27T06:26:13.926Z,18.59
2023-02-27T06:31:35.794Z,19.26
2023-02-27T06:36:57.848Z,19.78
2023-02-27T06:42:19.617Z,20.03
2023-02-27T06:47:42.489Z,20.01
2023-02-27T06:53:04.512Z,19.93
2023-02-27T06:58:26.331Z,19.80
2023-02-27T07:03:48.231Z,19.68
2023-02-27T07:09:10.190Z,19.55
2023-02-27T07:14:32.739Z,19.44
2023-02-27T07:19:54.800Z,19.31
2023-02-27T07:25:16.678Z,19.15
2023-02-27T07:30:39.175Z,19.04
2023-02-27T07:36:01.143Z,18.91
2023-02-27T07:41:30.259Z,18.94
2023-02-27T07:46:52.696Z,19.22
2023-02-27T07:52:14.639Z,19.77
2023-02-27T07:57:36.438Z,20.31
2023-02-27T08:02:58.173Z,20.94
2023-02-27T08:08:19.959Z,21.65
2023-02-27T08:13:59.438Z,22.60
2023-02-27T08:19:22.081Z,23.61
2023-02-27T08:24:43.883Z,24.38
2023-02-27T08:30:07.735Z,24.93
2023-02-27T08:35:29.923Z,25.24
2023-02-27T08:40:55.694Z,25.39
2023-02-27T08:46:17.504Z,25.18
2023-02-27T08:51:39.392Z,24.50
2023-02-27T08:57:01.117Z,23.66
2023-02-27T09:02:26.975Z,22.95
2023-02-27T09:07:49.196Z,22.33
2023-02-27T09:13:10.930Z,21.81
2023-02-27T09:18:32.759Z,21.42
2023-02-27T09:23:55.165Z,21.05
2023-02-27T09:29:17.373Z,20.77
2023-02-27T09:34:39.048Z,20.49
2023-02-27T09:40:01.186Z,20.27
2023-02-27T09:45:26.299Z,20.09
2023-02-27T09:50:49.860Z,19.89
2023-02-27T09:56:22.518Z,19.73
2023-02-27T10:01:52.692Z,19.57
2023-02-27T10:07:23.286Z,19.70
2023-02-27T10:13:15.038Z,20.00
2023-02-27T10:19:02.546Z,20.41
2023-02-27T10:24:37.294Z,20.82
2023-02-27T10:30:28.302Z,21.19
2023-02-27T10:35:55.186Z,21.44
2023-02-27T10:41:19.898Z,21.53
2023-02-27T10:46:42.080Z,21.52
2023-02-27T10:52:14.375Z,21.45
2023-02-27T10:57:42.460Z,21.26
2023-02-27T11:03:05.129Z,21.02
2023-02-27T11:08:32.728Z,20.81
2023-02-27T11:13:57.262Z,20.60
2023-02-27T11:19:40.216Z,20.42
2023-02-27T11:25:19.995Z,20.23
2023-02-27T11:30:43.794Z,20.03
2023-02-27T11:36:06.676Z,19.88
2023-02-27T11:41:33.824Z,19.73
2023-02-27T11:47:16.074Z,19.60
2023-02-27T11:53:04.427Z,19.44
2023-02-27T11:58:30.890Z,19.36
2023-02-27T12:04:02.934Z,19.31
2023-02-27T12:09:54.074Z,19.30
2023-02-27T12:15:26.649Z,19.28
2023-02-27T12:21:26.073Z,19.27
2023-02-27T12:26:51.066Z,19.36
2023-02-27T12:32:32.013Z,19.65
2023-02-27T12:37:54.234Z,19.95
2023-02-27T12:43:21.582Z,20.26
2023-02-27T12:49:12.511Z,20.56
2023-02-27T12:55:05.320Z,20.81
2023-02-27T13:00:33.122Z,20.96
2023-02-27T13:06:01.899Z,21.04
2023-02-27T13:11:59.217Z,21.05
2023-02-27T13:17:29.675Z,21.00
2023-02-27T13:23:06.345Z,20.88
2023-02-27T13:28:29.758Z,20.75
2023-02-27T13:34:06.691Z,20.62
2023-02-27T13:39:49.699Z,20.42
2023-02-27T13:45:50.593Z,20.33
2023-02-27T13:51:37.613Z,20.16
2023-02-27T13:56:59.257Z,20.02
2023-02-27T14:02:56.447Z,19.92
2023-02-27T14:08:23.403Z,19.82
2023-02-27T14:13:51.239Z,19.76
2023-02-27T14:19:15.815Z,19.68
2023-02-27T14:24:59.957Z,19.64
2023-02-27T14:30:41.024Z,19.56
2023-02-27T14:36:08.057Z,19.50
2023-02-27T14:41:51.649Z,19.47
2023-02-27T14:47:24.319Z,19.41
2023-02-27T14:52:46.171Z,19.36
2023-02-27T14:58:07.834Z,19.31
2023-02-27T15:03:40.390Z,19.29
2023-02-27T15:09:02.890Z,19.42
2023-02-27T15:14:32.013Z,19.68
2023-02-27T15:19:56.599Z,19.98
2023-02-27T15:25:38.624Z,20.24
2023-02-27T15:31:00.617Z,20.45
2023-02-27T15:36:29.445Z,20.67
2023-02-27T15:41:56.832Z,20.81
2023-02-27T15:47:39.306Z,20.90
2023-02-27T15:53:21.297Z,20.92
2023-02-27T15:58:50.865Z,20.85
2023-02-27T16:04:22.544Z,20.79
2023-02-27T16:09:48.027Z,20.67
2023-02-27T16:15:39.029Z,20.55
2023-02-27T16:21:33.898Z,20.39
2023-02-27T16:26:55.885Z,20.24
2023-02-27T16:32:39.118Z,20.11
2023-02-27T16:38:02.496Z,19.97
2023-02-27T16:43:24.251Z,19.84
2023-02-27T16:49:04.539Z,19.75
2023-02-27T16:54:32.322Z,19.62
2023-02-27T16:59:54.337Z,19.53
2023-02-27T17:05:16.522Z,19.42
2023-02-27T17:10:38.498Z,19.34
2023-02-27T17:16:00.733Z,19.28
2023-02-27T17:21:22.463Z,19.28
2023-02-27T17:26:44.620Z,19.30
2023-02-27T17:32:06.789Z,19.32
2023-02-27T17:37:28.799Z,19.36
2023-02-27T17:42:50.614Z,19.51
2023-02-27T17:48:12.958Z,19.64
2023-02-27T17:53:35.813Z,19.76
2023-02-27T17:58:57.896Z,19.82
2023-02-27T18:04:19.560Z,19.82
2023-02-27T18:09:41.674Z,19.88
2023-02-27T18:15:04.525Z,20.04
2023-02-27T18:20:26.261Z,20.33
2023-02-27T18:25:54.431Z,20.65
2023-02-27T18:31:27.816Z,20.84
2023-02-27T18:36:49.759Z,20.76
2023-02-27T18:42:11.563Z,20.68
2023-02-27T18:47:33.274Z,20.63
2023-02-27T18:52:56.334Z,20.51
2023-02-27T18:58:18.099Z,20.39
2023-02-27T19:03:39.810Z,20.24
2023-02-27T19:09:03.733Z,20.13
2023-02-27T19:14:26.138Z,20.08
2023-02-27T19:19:48.119Z,20.27
2023-02-27T19:25:10.304Z,20.59
2023-02-27T19:30:32.216Z,20.97
2023-02-27T19:35:54.012Z,21.35
2023-02-27T19:41:17.129Z,21.68
2023-02-27T19:46:41.172Z,21.95
2023-02-27T19:52:03.567Z,22.17
2023-02-27T19:57:25.311Z,22.33
2023-02-27T20:02:47.964Z,22.45
2023-02-27T20:08:09.661Z,22.52
2023-02-27T20:13:31.516Z,22.58
2023-02-27T20:18:53.832Z,22.57
2023-02-27T20:24:16.634Z,22.52
2023-02-27T20:29:38.453Z,22.40
2023-02-27T20:35:00.188Z,22.23
2023-02-27T20:40:21.963Z,22.10
2023-02-27T20:45:43.819Z,21.94
2023-02-27T20:51:11.251Z,21.77
2023-02-27T20:56:38.535Z,21.65
2023-02-27T21:02:00.297Z,21.52
2023-02-27T21:07:22.694Z,21.43
2023-02-27T21:12:45.481Z,21.36
2023-02-27T21:18:07.330Z,21.30
2023-02-27T21:23:29.090Z,21.29
2023-02-27T21:28:56.628Z,21.27
2023-02-27T21:34:27.437Z,21.25
2023-02-27T21:39:52.594Z,21.12
2023-02-27T21:45:14.542Z,20.99
2023-02-27T21:50:36.791Z,20.85
2023-02-27T21:56:07.339Z,20.75
2023-02-27T22:01:30.908Z,20.62
2023-02-27T22:06:52.805Z,20.49
2023-02-27T22:12:16.143Z,20.37
2023-02-27T22:17:38.063Z,20.24
2023-02-27T22:23:02.003Z,20.14
2023-02-27T22:28:23.784Z,20.03
2023-02-27T22:33:48.054Z,19.94
2023-02-27T22:39:11.002Z,19.82
2023-02-27T22:44:32.742Z,19.72
2023-02-27T22:49:54.586Z,19.63
2023-02-27T22:55:16.364Z,19.54
2023-02-27T23:00:38.175Z,19.46
2023-02-27T23:06:00.239Z,19.43
2023-02-27T23:11:22.053Z,19.36
2023-02-27T23:16:46.979Z,19.29
2023-02-27T23:22:09.008Z,19.21
2023-02-27T23:27:31.113Z,19.16
2023-02-27T23:32:53.034Z,19.10
2023-02-27T23:38:14.797Z,19.04
2023-02-27T23:43:36.720Z,18.99
2023-02-27T23:48:59.461Z,18.94
2023-02-27T23:54:21.150Z,18.87
2023-02-27T23:59:43.175Z,18.83
